Tofino, Canada
Current Conditions -  °F | °C
As of 6:00 PM on Friday 24 Oct 2014 (Local Time) from CYAZ Reporting Station
Overcast Overcast  
Wind Chill: 52°   Ceiling: 12000
Heat Index: 52°   Visibility: 15mi
Dew Point: 45°   Wind: 6mph
Humidity: 76%   Direction: 40°NE
Pressure: 29.88"   Gusts: NA
Location:  49.15°N, 125.9°W
Report Text: CYAZ 250100Z 04005KT 360V070 15SM FEW020 SCT080 BKN120 OVC220 11/07 A2988 RMK SC2AC1AS3CI2 LAST OBS/NEXT 251300UTC SLP119
Loading
Personal Weather Stations






























Interactive Weather Map
Tropical Storm Tracking
New forecast layout! Learn more

10-Day Weather Forecast

Advertisements
Track Severe Weather on mobile